Time;durP1;ratioP1;P1;durP2;ratioP2;P2;SDS_P1;SDS_P2;PMS_P1;PMS_P2;Temp;Humidity;BMP_temperature;BMP_pressure;BME280_temperature;BME280_humidity;BME280_pressure;Samples;Min_cycle;Max_cycle;Signal;HPM_P1;HPM_P2
2022/12/11 00:01:15;;;;;;;0.10;0.10;;;0.80;99.90;-0.90;96089.00;;;;5088845;28;20270;-74
2022/12/11 00:03:46;;;;;;;0.10;0.10;;;0.80;99.90;-0.60;96104.00;;;;5088361;28;20189;-74
2022/12/11 00:06:20;;;;;;;0.10;0.10;;;0.80;99.90;-0.60;96092.00;;;;5086175;28;20204;-74
2022/12/11 00:08:51;;;;;;;0.10;0.10;;;0.80;99.90;-0.60;96092.00;;;;5106828;28;20225;-75
2022/12/11 00:11:21;;;;;;;0.20;0.20;;;0.80;99.90;-0.60;96027.00;;;;5092202;28;20201;-74
2022/12/11 00:13:50;;;;;;;0.15;0.15;;;0.80;99.90;-0.50;96097.00;;;;5091330;28;20188;-74
2022/12/11 00:16:18;;;;;;;0.10;0.10;;;0.80;99.90;-0.60;96086.00;;;;5091810;28;20250;-74
2022/12/11 00:18:53;;;;;;;0.10;0.10;;;0.80;99.90;-0.50;96090.00;;;;5091493;28;20228;-74
2022/12/11 00:21:23;;;;;;;0.10;0.10;;;0.90;99.90;-0.50;96085.00;;;;5091986;28;20266;-74
2022/12/11 00:23:51;;;;;;;0.10;0.10;;;0.90;99.90;-0.50;96078.00;;;;5091163;28;20196;-74
2022/12/11 00:26:19;;;;;;;0.10;0.10;;;0.90;99.90;-0.60;96085.00;;;;5092266;28;20197;-73
2022/12/11 00:28:48;;;;;;;0.20;0.20;;;0.80;99.90;-0.60;96080.00;;;;5092747;28;20240;-73
2022/12/11 00:31:19;;;;;;;0.10;0.10;;;0.80;99.90;-0.70;96084.00;;;;5081764;28;20673;-73
2022/12/11 00:33:48;;;;;;;0.10;0.10;;;0.70;99.90;-0.70;96083.00;;;;5094692;28;20197;-73
2022/12/11 00:36:21;;;;;;;0.10;0.10;;;0.70;99.90;-0.80;96070.00;;;;5098116;28;20248;-75
2022/12/11 00:38:52;;;;;;;0.20;0.20;;;0.70;99.90;-0.70;96084.00;;;;5075463;28;20219;-73
2022/12/11 00:41:22;;;;;;;0.10;0.10;;;0.70;99.90;-0.70;96086.00;;;;5088900;28;20573;-73
2022/12/11 00:43:50;;;;;;;0.10;0.10;;;0.70;99.90;-0.80;96093.00;;;;5098890;28;20204;-73
2022/12/11 00:46:20;;;;;;;0.10;0.10;;;0.70;99.90;-0.80;96075.00;;;;5095431;28;20216;-73
2022/12/11 00:48:49;;;;;;;0.10;0.10;;;0.70;99.90;-0.90;96083.00;;;;5100882;28;20273;-73
2022/12/11 00:51:18;;;;;;;0.10;0.10;;;0.60;99.90;-0.90;96081.00;;;;5110280;28;20653;-74
2022/12/11 00:53:46;;;;;;;0.20;0.20;;;0.60;99.90;-0.80;96082.00;;;;5104615;28;20200;-73
2022/12/11 00:56:20;;;;;;;0.20;0.20;;;0.60;99.90;-0.90;96075.00;;;;5095927;28;20210;-73
2022/12/11 00:58:49;;;;;;;0.10;0.10;;;0.60;99.90;-0.90;96099.00;;;;5105020;28;20236;-74
2022/12/11 01:01:21;;;;;;;0.10;0.10;;;0.60;99.90;-0.80;96100.00;;;;5095516;28;20217;-74
2022/12/11 01:03:50;;;;;;;0.10;0.10;;;0.60;99.90;-0.80;96092.00;;;;5095818;28;20431;-73
2022/12/11 01:06:22;;;;;;;0.20;0.20;;;0.60;99.90;-1.00;95993.00;;;;5099851;28;20611;-73
2022/12/11 01:10:22;;;;;;;0.10;0.10;;;0.50;99.90;-1.00;96098.00;;;;5104883;28;20270;-74
2022/12/11 01:11:42;;;;;;;0.15;0.15;;;0.50;99.90;-0.80;96122.00;;;;5098809;28;20239;-74
2022/12/11 01:14:11;;;;;;;0.10;0.10;;;0.60;99.90;-0.90;96132.00;;;;5090175;28;20220;-73
2022/12/11 01:16:39;;;;;;;0.10;0.10;;;0.60;99.90;-1.00;96110.00;;;;5094626;28;20185;-74
2022/12/11 01:19:08;;;;;;;0.10;0.10;;;0.50;99.90;-1.00;96108.00;;;;5094841;28;20232;-73
2022/12/11 01:21:36;;;;;;;0.10;0.10;;;0.50;99.90;-1.00;96118.00;;;;5101160;28;20600;-73
2022/12/11 01:24:05;;;;;;;0.10;0.10;;;0.50;99.90;-0.90;96125.00;;;;5100938;28;20541;-73
2022/12/11 01:26:33;;;;;;;0.10;0.10;;;0.60;99.90;-0.80;96124.00;;;;5099606;28;20600;-74
2022/12/11 01:29:03;;;;;;;0.10;0.10;;;0.60;99.90;-0.70;96139.00;;;;5108315;28;20221;-74
2022/12/11 01:31:31;;;;;;;0.10;0.10;;;0.70;99.90;-0.80;96131.00;;;;5107780;28;20188;-74
2022/12/11 01:33:59;;;;;;;0.10;0.10;;;0.70;99.90;-0.70;96128.00;;;;5074686;28;20239;-75
2022/12/11 01:36:27;;;;;;;0.20;0.20;;;0.70;99.90;-0.70;96123.00;;;;5087167;28;20254;-74
2022/12/11 01:38:56;;;;;;;0.10;0.10;;;0.70;99.90;-0.80;96126.00;;;;5104778;28;20256;-74
2022/12/11 01:41:24;;;;;;;0.10;0.10;;;0.70;99.90;-0.90;96125.00;;;;5104638;28;20208;-74
2022/12/11 01:44:04;;;;;;;0.10;0.10;;;0.60;99.90;-0.90;96117.00;;;;5115406;28;20192;-74
2022/12/11 01:46:35;;;;;;;0.10;0.10;;;0.60;99.90;-1.00;96156.00;;;;5108902;28;20264;-74
2022/12/11 01:49:08;;;;;;;0.10;0.10;;;0.50;99.90;-0.90;96121.00;;;;5107963;28;20220;-75
2022/12/11 01:51:42;;;;;;;0.10;0.10;;;0.50;99.90;-0.90;96112.00;;;;5108040;28;20197;-75
2022/12/11 01:54:14;;;;;;;0.10;0.10;;;0.50;99.90;-0.90;96124.00;;;;5088031;28;20197;-74
2022/12/11 01:56:47;;;;;;;0.10;0.10;;;0.50;99.90;-1.00;96125.00;;;;5087290;28;20194;-74
2022/12/11 01:59:24;;;;;;;0.10;0.10;;;0.50;99.90;-0.90;96121.00;;;;5104750;28;20209;-74
2022/12/11 02:02:00;;;;;;;0.20;0.20;;;0.50;99.90;-1.00;96110.00;;;;5107797;28;20208;-73
2022/12/11 02:04:30;;;;;;;0.20;0.20;;;0.50;99.90;-1.00;96122.00;;;;5115035;28;20188;-74
2022/12/11 02:06:58;;;;;;;0.10;0.10;;;0.50;99.90;-1.00;96123.00;;;;5107092;28;20192;-74
2022/12/11 02:09:31;;;;;;;0.10;0.10;;;0.50;99.90;-1.10;96108.00;;;;5098584;28;20566;-74
2022/12/11 02:12:07;;;;;;;0.20;0.20;;;0.40;99.90;-1.10;96121.00;;;;5097725;28;20208;-74
2022/12/11 02:14:43;;;;;;;0.10;0.10;;;0.30;99.90;-1.20;96103.00;;;;5111784;28;20200;-74
2022/12/11 02:17:18;;;;;;;0.17;0.17;;;0.30;99.90;-1.10;96113.00;;;;5105359;28;20193;-74
2022/12/11 02:20:04;;;;;;;0.15;0.15;;;0.30;99.90;-1.30;95775.00;;;;5113117;28;20261;-74
2022/12/11 02:23:06;;;;;;;0.20;0.20;;;0.40;99.90;-1.30;95754.00;;;;5102271;28;20230;-75
2022/12/11 02:25:46;;;;;;;0.10;0.10;;;0.40;99.90;-1.30;95763.00;;;;5073725;28;20725;-77
2022/12/11 02:28:22;;;;;;;0.20;0.20;;;0.40;99.90;-1.20;96110.00;;;;5101573;28;20265;-75
2022/12/11 02:30:57;;;;;;;0.20;0.20;;;0.30;99.90;-1.20;96054.00;;;;5113476;28;20233;-77
2022/12/11 02:33:36;;;;;;;0.10;0.10;;;0.30;99.90;-1.30;96085.00;;;;5105081;28;20246;-75
2022/12/11 02:36:09;;;;;;;0.10;0.10;;;0.20;99.90;-1.30;96103.00;;;;5095445;28;20730;-75
2022/12/11 02:38:42;;;;;;;0.10;0.10;;;0.20;99.90;-1.30;96111.00;;;;5105166;28;20624;-75
2022/12/11 02:41:12;;;;;;;0.10;0.10;;;0.20;99.90;-1.20;96103.00;;;;5094301;28;20201;-75
2022/12/11 02:43:45;;;;;;;0.10;0.10;;;0.20;99.90;-1.20;96104.00;;;;5102144;28;20269;-75
2022/12/11 02:46:16;;;;;;;0.10;0.10;;;0.20;99.90;-1.20;96106.00;;;;5101569;28;20189;-76
2022/12/11 02:48:47;;;;;;;0.10;0.10;;;0.30;99.90;-1.20;96120.00;;;;5088139;28;20890;-76
2022/12/11 02:51:21;;;;;;;0.10;0.10;;;0.30;99.90;-1.20;96112.00;;;;5088430;28;20206;-76
2022/12/11 02:53:55;;;;;;;0.10;0.10;;;0.30;99.90;-1.20;96114.00;;;;5081257;28;20197;-75
2022/12/11 02:56:33;;;;;;;0.20;0.20;;;0.20;99.90;-1.20;96115.00;;;;5098716;28;20211;-75
2022/12/11 02:59:11;;;;;;;0.10;0.10;;;0.20;99.90;-1.30;96115.00;;;;5110089;28;20276;-75
2022/12/11 03:01:39;;;;;;;0.10;0.10;;;0.20;99.90;-1.40;96111.00;;;;5112904;28;20188;-76
2022/12/11 03:04:07;;;;;;;0.10;0.10;;;0.10;99.90;-1.40;96113.00;;;;5092964;28;20221;-76
2022/12/11 03:06:41;;;;;;;0.10;0.10;;;0.10;99.90;-1.50;96109.00;;;;5095260;28;20189;-75
2022/12/11 03:09:10;;;;;;;0.10;0.10;;;0.00;99.90;-1.60;96102.00;;;;5105379;28;20212;-76
2022/12/11 03:11:38;;;;;;;0.10;0.10;;;0.00;99.90;-1.60;96113.00;;;;5109184;28;20241;-75
2022/12/11 03:14:08;;;;;;;0.10;0.10;;;0.00;99.90;-1.60;96116.00;;;;5101225;28;20196;-76
2022/12/11 03:16:42;;;;;;;0.20;0.20;;;0.00;99.90;-1.50;96118.00;;;;5096101;28;20197;-75
2022/12/11 03:19:27;;;;;;;0.20;0.20;;;0.00;99.90;-1.40;96100.00;;;;5087581;28;20567;-75
2022/12/11 03:22:04;;;;;;;0.10;0.10;;;0.00;99.90;-1.50;96095.00;;;;5086826;28;20206;-75
2022/12/11 03:24:41;;;;;;;0.10;0.10;;;0.00;99.90;-1.50;96093.00;;;;5108740;28;20289;-76
2022/12/11 03:27:19;;;;;;;0.10;0.10;;;0.00;99.90;-1.40;96109.00;;;;5101342;28;20200;-75
2022/12/11 03:29:58;;;;;;;0.10;0.10;;;0.00;99.90;-1.40;96100.00;;;;5109789;28;20220;-76
2022/12/11 03:32:34;;;;;;;0.10;0.10;;;0.00;99.90;-1.50;96030.00;;;;5099246;28;20721;-76
2022/12/11 03:35:12;;;;;;;0.10;0.10;;;0.00;99.90;-1.60;96064.00;;;;5111807;28;20607;-76
2022/12/11 03:37:44;;;;;;;0.20;0.20;;;-0.10;99.90;-1.70;96106.00;;;;5106278;28;20188;-76
2022/12/11 03:40:17;;;;;;;0.10;0.10;;;-0.10;99.90;-1.60;96086.00;;;;5073801;28;20193;-76
2022/12/11 03:42:49;;;;;;;0.10;0.10;;;-0.10;99.90;-1.80;96101.00;;;;5076082;28;20241;-76
2022/12/11 03:45:22;;;;;;;0.10;0.10;;;-0.20;99.90;-1.70;96094.00;;;;5071756;28;20190;-75
2022/12/11 03:47:53;;;;;;;0.10;0.10;;;-0.20;99.90;-1.70;96098.00;;;;5075560;28;20598;-75
2022/12/11 03:50:24;;;;;;;0.10;0.10;;;-0.20;99.90;-1.80;96097.00;;;;5051888;28;20252;-76
2022/12/11 03:52:55;;;;;;;0.10;0.10;;;-0.30;99.90;-1.90;96011.00;;;;5085028;28;20635;-76
2022/12/11 03:55:25;;;;;;;0.10;0.10;;;-0.30;99.90;-1.80;96092.00;;;;5072297;28;20189;-76
2022/12/11 03:57:53;;;;;;;0.13;0.13;;;-0.30;99.90;-1.90;96099.00;;;;5085846;28;20225;-76
2022/12/11 04:00:23;;;;;;;0.20;0.20;;;-0.30;99.90;-1.90;96095.00;;;;5071236;28;20197;-76
2022/12/11 04:05:41;;;;;;;0.20;0.20;;;-0.30;99.90;-2.00;96116.00;;;;5074098;28;20278;-76
2022/12/11 04:08:10;;;;;;;0.10;0.10;;;-0.40;99.90;-1.90;96134.00;;;;5083538;28;20217;-76
2022/12/11 04:10:38;;;;;;;0.20;0.20;;;-0.40;99.90;-1.90;96120.00;;;;5071162;28;20712;-76
2022/12/11 04:13:07;;;;;;;0.10;0.10;;;-0.40;99.90;-1.80;96106.00;;;;5083947;28;20201;-77
2022/12/11 04:15:36;;;;;;;0.10;0.10;;;-0.30;99.90;-1.80;96109.00;;;;5071559;28;20186;-76
2022/12/11 04:26:25;;;;;;;0.15;0.15;;;-0.40;99.90;-1.90;96109.00;;;;5059598;28;20196;-76
2022/12/11 04:28:53;;;;;;;0.20;0.20;;;-0.40;99.90;-1.90;96111.00;;;;5079677;28;20213;-76
2022/12/11 04:31:23;;;;;;;0.15;0.15;;;-0.40;99.90;-2.20;96071.00;;;;5076553;28;20194;-75
2022/12/11 04:33:52;;;;;;;0.10;0.10;;;-0.50;99.90;-2.20;96095.00;;;;5082148;28;20272;-75
2022/12/11 04:36:20;;;;;;;0.10;0.10;;;-0.60;99.90;-2.10;96109.00;;;;5071923;28;20614;-76
2022/12/11 04:38:48;;;;;;;0.20;0.20;;;-0.50;99.90;-2.00;96105.00;;;;5081698;28;20214;-76
2022/12/11 04:41:17;;;;;;;0.17;0.17;;;-0.50;99.90;-2.00;96109.00;;;;5071805;28;20255;-76
2022/12/11 04:43:45;;;;;;;0.10;0.10;;;-0.50;99.90;-1.90;96113.00;;;;5081852;28;20210;-76
2022/12/11 04:46:17;;;;;;;0.20;0.20;;;-0.50;99.90;-1.90;96096.00;;;;5071076;28;20193;-76
2022/12/11 04:48:47;;;;;;;0.10;0.10;;;-0.40;99.90;-2.10;96100.00;;;;5078971;28;20232;-76
2022/12/11 04:51:24;;;;;;;0.17;0.17;;;-0.40;99.90;-2.00;96089.00;;;;5071764;28;20279;-76
2022/12/11 04:53:52;;;;;;;0.10;0.10;;;-0.50;99.90;-2.20;96080.00;;;;5081767;28;20201;-75
2022/12/11 04:56:21;;;;;;;0.10;0.10;;;-0.50;99.90;-2.10;96104.00;;;;5070825;28;20217;-75
2022/12/11 04:58:50;;;;;;;0.10;0.10;;;-0.50;99.90;-2.20;96087.00;;;;5084691;28;20228;-74
2022/12/11 05:01:21;;;;;;;0.10;0.10;;;-0.60;99.90;-2.10;96084.00;;;;5078357;28;20243;-75
2022/12/11 05:03:51;;;;;;;0.10;0.10;;;-0.60;99.90;-2.00;96090.00;;;;5078656;28;20205;-74
2022/12/11 05:06:19;;;;;;;0.10;0.10;;;-0.50;99.90;-2.00;96094.00;;;;5071296;28;20196;-75
2022/12/11 05:08:47;;;;;;;0.20;0.20;;;-0.50;99.90;-2.10;96096.00;;;;5078237;28;20218;-74
2022/12/11 05:11:16;;;;;;;0.10;0.10;;;-0.50;99.90;-2.10;96100.00;;;;5071061;28;20194;-74
2022/12/11 05:13:45;;;;;;;0.20;0.20;;;-0.60;99.90;-2.00;96028.00;;;;5081973;28;20193;-74
2022/12/11 05:16:16;;;;;;;0.20;0.20;;;-0.50;99.90;-2.00;96085.00;;;;5070666;28;20190;-75
2022/12/11 05:18:46;;;;;;;0.10;0.10;;;-0.50;99.90;-2.10;96088.00;;;;5078561;28;20308;-74
2022/12/11 05:21:16;;;;;;;0.17;0.17;;;-0.50;99.90;-2.10;96078.00;;;;5090370;28;20189;-74
2022/12/11 05:23:44;;;;;;;0.10;0.10;;;-0.50;99.90;-2.10;96082.00;;;;5082733;28;20244;-74
2022/12/11 05:26:15;;;;;;;0.10;0.10;;;-0.60;99.90;-2.00;96080.00;;;;5070225;28;20194;-74
2022/12/11 05:28:45;;;;;;;0.20;0.20;;;-0.60;99.90;-2.00;96087.00;;;;5077765;28;20291;-74
2022/12/11 05:31:16;;;;;;;0.10;0.10;;;-0.60;99.90;-2.20;96079.00;;;;5090291;28;20238;-74
2022/12/11 05:33:46;;;;;;;0.10;0.10;;;-0.50;99.90;-2.00;96082.00;;;;5081400;28;20200;-74
2022/12/11 05:36:20;;;;;;;0.20;0.20;;;-0.50;99.90;-2.10;96073.00;;;;5086526;28;20535;-74
2022/12/11 05:38:49;;;;;;;0.20;0.20;;;-0.50;99.90;-2.10;96080.00;;;;5082108;28;20204;-74
2022/12/11 05:41:20;;;;;;;0.20;0.20;;;-0.50;99.90;-2.10;96089.00;;;;5074219;28;20657;-74
2022/12/11 05:43:48;;;;;;;0.20;0.20;;;-0.60;99.90;-2.00;96033.00;;;;5081793;28;20261;-74
2022/12/11 05:46:19;;;;;;;0.10;0.10;;;-0.50;99.90;-2.10;96078.00;;;;5086341;28;20201;-75
2022/12/11 05:48:50;;;;;;;0.10;0.10;;;-0.60;99.90;-2.00;96108.00;;;;5081052;28;20258;-74
2022/12/11 05:51:21;;;;;;;0.17;0.17;;;-0.50;99.90;-2.00;96094.00;;;;5094141;28;20189;-74
2022/12/11 05:53:52;;;;;;;0.20;0.20;;;-0.50;99.90;-2.20;96080.00;;;;5081461;28;20197;-75
2022/12/11 05:56:25;;;;;;;0.20;0.20;;;-0.60;99.90;-2.10;96069.00;;;;5085784;28;20228;-75
2022/12/11 05:58:54;;;;;;;0.20;0.20;;;-0.60;99.90;-2.10;96091.00;;;;5086523;28;20267;-75
2022/12/11 06:01:26;;;;;;;0.10;0.10;;;-0.60;99.90;-2.20;96075.00;;;;5080469;28;20189;-75
2022/12/11 06:03:56;;;;;;;0.10;0.10;;;-0.60;99.90;-2.20;96083.00;;;;5084537;28;20213;-75
2022/12/11 06:06:27;;;;;;;0.10;0.10;;;-0.60;99.90;-2.20;96073.00;;;;5074782;28;20255;-75
2022/12/11 06:08:57;;;;;;;0.10;0.10;;;-0.60;99.90;-2.20;96061.00;;;;5081452;28;20220;-74
2022/12/11 06:11:28;;;;;;;0.13;0.13;;;-0.70;99.90;-2.20;96049.00;;;;5093041;28;20189;-74
2022/12/11 06:13:57;;;;;;;0.10;0.10;;;-0.60;99.90;-2.20;96083.00;;;;5081748;28;20552;-74
2022/12/11 06:16:25;;;;;;;0.10;0.10;;;-0.60;99.90;-2.20;96079.00;;;;5085284;28;20202;-74
2022/12/11 06:18:53;;;;;;;0.20;0.20;;;-0.70;99.90;-2.10;96080.00;;;;5086107;28;20292;-74
2022/12/11 06:21:29;;;;;;;0.13;0.13;;;-0.60;99.90;-2.20;96012.00;;;;5073078;28;20186;-74
2022/12/11 06:24:00;;;;;;;0.10;0.10;;;-0.60;99.90;-2.10;96088.00;;;;5081851;28;20189;-74
2022/12/11 06:26:30;;;;;;;0.15;0.15;;;-0.60;99.90;-2.20;96072.00;;;;5085253;28;20702;-74
2022/12/11 06:28:59;;;;;;;0.17;0.17;;;-0.60;99.90;-2.30;96081.00;;;;5084387;28;20631;-74
2022/12/11 06:31:27;;;;;;;0.20;0.20;;;-0.70;99.90;-2.30;96085.00;;;;5072924;28;20240;-74
2022/12/11 06:33:55;;;;;;;0.20;0.20;;;-0.70;99.90;-2.30;96078.00;;;;5079816;28;20634;-74
2022/12/11 06:36:26;;;;;;;0.20;0.20;;;-0.70;99.90;-2.30;96079.00;;;;5084034;28;20732;-74
2022/12/11 06:38:55;;;;;;;0.20;0.20;;;-0.70;99.90;-2.30;96083.00;;;;5079068;28;20213;-74
2022/12/11 06:41:23;;;;;;;0.10;0.10;;;-0.70;99.90;-2.40;96075.00;;;;5074875;28;20189;-74
2022/12/11 06:43:51;;;;;;;0.10;0.10;;;-0.80;99.90;-2.50;96080.00;;;;5079616;28;20189;-74
2022/12/11 06:46:21;;;;;;;0.20;0.20;;;-0.80;99.90;-2.50;96080.00;;;;5084889;28;20197;-74
2022/12/11 06:48:49;;;;;;;0.20;0.20;;;-0.90;99.90;-2.40;96076.00;;;;5072249;28;20251;-74
2022/12/11 06:51:21;;;;;;;0.20;0.20;;;-0.90;99.90;-2.50;96081.00;;;;5057503;28;20198;-74
2022/12/11 06:53:54;;;;;;;0.20;0.20;;;-0.90;99.90;-2.50;96084.00;;;;5086711;28;20201;-75
2022/12/11 06:56:24;;;;;;;0.20;0.20;;;-0.90;99.90;-2.40;96071.00;;;;5084490;28;20198;-74
2022/12/11 06:58:52;;;;;;;0.20;0.20;;;-0.90;99.90;-2.50;96071.00;;;;5083447;28;20238;-74
2022/12/11 07:01:24;;;;;;;0.10;0.10;;;-0.90;99.90;-2.60;96053.00;;;;5078560;28;20619;-74
2022/12/11 07:03:53;;;;;;;0.10;0.10;;;-0.90;99.90;-2.50;96076.00;;;;5082529;28;20193;-75
2022/12/11 07:06:22;;;;;;;0.10;0.10;;;-0.90;99.90;-2.50;96079.00;;;;5084730;28;20232;-75
2022/12/11 07:08:51;;;;;;;0.10;0.10;;;-0.90;99.90;-2.50;96078.00;;;;5070268;28;20222;-75
2022/12/11 07:11:21;;;;;;;0.20;0.20;;;-0.90;99.90;-2.50;96075.00;;;;5077398;28;20212;-76
2022/12/11 07:13:49;;;;;;;0.20;0.20;;;-1.00;99.90;-2.50;96083.00;;;;5077883;28;20409;-74
2022/12/11 07:16:18;;;;;;;0.10;0.10;;;-0.90;99.90;-2.40;96033.00;;;;5083232;28;20205;-75
2022/12/11 07:18:49;;;;;;;0.20;0.20;;;-0.90;99.90;-2.40;96083.00;;;;5083401;28;20615;-75
2022/12/11 07:21:19;;;;;;;0.20;0.20;;;-0.90;99.90;-2.40;96087.00;;;;5074782;28;20200;-75
2022/12/11 07:23:48;;;;;;;0.10;0.10;;;-0.80;99.90;-2.40;96075.00;;;;5087818;28;20234;-74
2022/12/11 07:26:21;;;;;;;0.20;0.20;;;-0.80;99.90;-2.20;96101.00;;;;5072569;28;20221;-75
2022/12/11 07:28:49;;;;;;;0.20;0.20;;;-0.80;99.90;-2.30;96075.00;;;;5082180;28;20229;-74
2022/12/11 07:31:23;;;;;;;0.20;0.20;;;-0.80;99.90;-2.30;96088.00;;;;5051792;28;20206;-75
2022/12/11 07:33:54;;;;;;;0.20;0.20;;;-0.80;99.90;-2.30;96093.00;;;;5076448;28;20193;-75
2022/12/11 07:36:22;;;;;;;0.10;0.10;;;-0.80;99.90;-2.30;96102.00;;;;5082913;28;20281;-75
2022/12/11 07:38:50;;;;;;;0.10;0.10;;;-0.80;99.90;-2.30;96093.00;;;;5083503;28;20213;-75
2022/12/11 07:41:20;;;;;;;0.20;0.20;;;-0.80;99.90;-2.40;96114.00;;;;5071082;28;20605;-75
2022/12/11 07:43:53;;;;;;;0.20;0.20;;;-0.80;99.90;-2.40;96099.00;;;;5082613;28;20672;-75
2022/12/11 07:46:25;;;;;;;0.20;0.20;;;-0.80;99.90;-2.40;96128.00;;;;5072513;28;20259;-75
2022/12/11 07:48:54;;;;;;;0.10;0.10;;;-0.80;99.90;-2.40;96078.00;;;;5085592;28;20224;-75
2022/12/11 07:51:26;;;;;;;0.20;0.20;;;-0.80;99.90;-2.30;96105.00;;;;5072190;28;20201;-77
2022/12/11 07:53:58;;;;;;;0.20;0.20;;;-0.80;99.90;-2.50;95997.00;;;;5084380;28;20197;-76
2022/12/11 07:56:30;;;;;;;0.10;0.10;;;-0.90;99.90;-2.40;96100.00;;;;5071553;28;20185;-76
2022/12/11 07:58:59;;;;;;;0.10;0.10;;;-0.80;99.90;-2.40;96103.00;;;;5074431;28;20218;-76
2022/12/11 08:01:30;;;;;;;0.20;0.20;;;-0.90;99.90;-2.30;96100.00;;;;5067549;28;20205;-76
2022/12/11 08:03:59;;;;;;;0.20;0.20;;;-0.80;99.90;-2.30;96088.00;;;;5072389;28;20197;-75
2022/12/11 08:06:30;;;;;;;0.10;0.10;;;-0.80;99.90;-2.30;96123.00;;;;5071066;28;20213;-76
2022/12/11 08:09:01;;;;;;;0.10;0.10;;;-0.80;99.90;-2.40;96106.00;;;;5084087;28;20287;-75
2022/12/11 08:11:31;;;;;;;0.15;0.15;;;-0.80;99.90;-2.30;96106.00;;;;5070475;28;20197;-75
2022/12/11 08:14:00;;;;;;;0.10;0.10;;;-0.70;99.90;-2.30;96096.00;;;;5085162;28;20197;-75
2022/12/11 08:16:29;;;;;;;0.10;0.10;;;-0.80;99.90;-2.30;96118.00;;;;5071239;28;20618;-75
2022/12/11 08:18:58;;;;;;;0.20;0.20;;;-0.70;99.90;-2.10;96094.00;;;;5074571;28;21011;-75
2022/12/11 08:21:28;;;;;;;0.20;0.20;;;-0.70;99.90;-2.10;96110.00;;;;5091723;28;20188;-75
2022/12/11 08:23:56;;;;;;;0.10;0.10;;;-0.70;99.90;-2.10;96109.00;;;;5079140;28;20255;-74
2022/12/11 08:26:27;;;;;;;0.15;0.15;;;-0.60;99.90;-2.10;96091.00;;;;5078910;28;20294;-74
2022/12/11 08:28:57;;;;;;;0.15;0.15;;;-0.60;99.90;-2.10;96101.00;;;;5073339;28;20775;-74
2022/12/11 08:31:26;;;;;;;0.10;0.10;;;-0.60;99.90;-2.00;96118.00;;;;5051927;28;20190;-74
2022/12/11 08:33:57;;;;;;;0.20;0.20;;;-0.60;99.90;-2.00;96101.00;;;;5081581;28;20224;-75
2022/12/11 08:36:25;;;;;;;0.10;0.10;;;-0.50;99.90;-2.00;96095.00;;;;5071058;28;20227;-74
2022/12/11 08:38:55;;;;;;;0.10;0.10;;;-0.50;99.90;-2.00;96089.00;;;;5084265;28;20244;-75
2022/12/11 08:41:26;;;;;;;0.10;0.10;;;-0.50;99.90;-2.10;96110.00;;;;5071605;28;20197;-75
2022/12/11 08:43:59;;;;;;;0.10;0.10;;;-0.60;99.90;-2.10;96101.00;;;;5077430;28;20619;-75
2022/12/11 08:46:30;;;;;;;0.10;0.10;;;-0.50;99.90;-2.00;96102.00;;;;5082282;28;20212;-74
2022/12/11 08:49:03;;;;;;;0.10;0.10;;;-0.50;99.90;-1.80;96104.00;;;;5072680;28;20221;-74
2022/12/11 08:51:32;;;;;;;0.10;0.10;;;-0.40;99.90;-1.80;96103.00;;;;5070742;28;20182;-74
2022/12/11 08:54:01;;;;;;;0.10;0.10;;;-0.30;99.90;-1.80;96098.00;;;;5068707;28;20209;-75
2022/12/11 08:56:30;;;;;;;0.10;0.10;;;-0.30;99.90;-1.90;96109.00;;;;5073814;28;20500;-75
2022/12/11 08:59:02;;;;;;;0.20;0.20;;;-0.40;99.90;-1.70;96041.00;;;;5075651;28;20275;-75
2022/12/11 09:01:31;;;;;;;0.20;0.20;;;-0.30;99.90;-1.70;96109.00;;;;5072484;28;20202;-75
2022/12/11 09:03:59;;;;;;;0.20;0.20;;;-0.30;99.90;-1.70;96109.00;;;;5069927;28;20655;-75
2022/12/11 09:06:32;;;;;;;0.10;0.10;;;-0.30;99.90;-1.80;96106.00;;;;5079758;28;20214;-74
2022/12/11 09:09:02;;;;;;;0.20;0.20;;;-0.30;99.90;-1.90;96099.00;;;;5088364;28;20270;-75
2022/12/11 09:11:33;;;;;;;0.20;0.20;;;-0.40;99.90;-1.80;96122.00;;;;5074789;28;20186;-75
2022/12/11 09:14:04;;;;;;;0.20;0.20;;;-0.40;99.90;-1.90;96109.00;;;;5088110;28;20261;-74
2022/12/11 09:16:38;;;;;;;0.10;0.10;;;-0.40;99.90;-1.80;96130.00;;;;5084424;28;20200;-74
2022/12/11 09:19:11;;;;;;;0.10;0.10;;;-0.40;99.90;-1.80;96106.00;;;;5080785;28;20706;-74
2022/12/11 09:21:40;;;;;;;0.20;0.20;;;-0.40;99.90;-1.90;96118.00;;;;5074341;28;20591;-75
2022/12/11 09:24:10;;;;;;;0.10;0.10;;;-0.40;99.90;-2.00;96104.00;;;;5075850;28;20189;-75
2022/12/11 09:26:39;;;;;;;0.15;0.15;;;-0.40;99.90;-2.00;96100.00;;;;5074324;28;20221;-74
2022/12/11 09:29:11;;;;;;;0.10;0.10;;;-0.50;99.90;-2.00;96071.00;;;;5075708;28;20252;-75
2022/12/11 09:31:40;;;;;;;0.20;0.20;;;-0.50;99.90;-2.00;96119.00;;;;5074575;28;20193;-75
2022/12/11 09:34:12;;;;;;;0.10;0.10;;;-0.50;99.90;-2.00;96083.00;;;;5076102;28;20186;-75
2022/12/11 09:36:43;;;;;;;0.10;0.10;;;-0.40;99.90;-1.90;96120.00;;;;5074467;28;20198;-74
2022/12/11 09:39:12;;;;;;;0.10;0.10;;;-0.40;99.90;-1.90;96114.00;;;;5076184;28;20205;-76
2022/12/11 09:41:52;;;;;;;0.10;0.10;;;-0.40;99.90;-1.80;96106.00;;;;5074296;28;20244;-74
2022/12/11 09:44:34;;;;;;;0.10;0.10;;;-0.40;99.90;-1.80;96113.00;;;;5079126;28;20196;-74
2022/12/11 09:47:02;;;;;;;0.10;0.10;;;-0.30;99.90;-1.80;96100.00;;;;5072925;28;20252;-74
2022/12/11 09:49:39;;;;;;;0.10;0.10;;;-0.40;99.90;-1.80;96106.00;;;;5089791;28;20213;-74
2022/12/11 09:52:14;;;;;;;0.10;0.10;;;-0.40;99.90;-1.80;96097.00;;;;5070418;28;20561;-74
2022/12/11 09:54:49;;;;;;;0.10;0.10;;;-0.30;99.90;-1.80;96095.00;;;;5075869;28;20194;-74
2022/12/11 09:57:46;;;;;;;0.10;0.10;;;-0.30;99.90;-1.80;96098.00;;;;5073368;28;20247;-75
2022/12/11 10:00:25;;;;;;;0.20;0.20;;;-0.40;99.90;-1.80;96114.00;;;;5078510;28;20189;-74
2022/12/11 10:03:38;;;;;;;0.10;0.10;;;-0.40;99.90;-1.80;96093.00;;;;5091603;28;20209;-75
2022/12/11 10:06:17;;;;;;;0.10;0.10;;;-0.30;99.90;-1.80;96095.00;;;;5057608;28;20709;-75
2022/12/11 10:09:00;;;;;;;0.10;0.10;;;-0.30;99.90;-1.70;96091.00;;;;5074116;28;20209;-75
2022/12/11 10:11:52;;;;;;;0.10;0.10;;;-0.20;99.90;-1.80;96090.00;;;;5072326;28;20272;-77
2022/12/11 10:14:38;;;;;;;0.20;0.20;;;-0.30;99.90;-2.00;96078.00;;;;5073195;28;20186;-75
2022/12/11 10:17:15;;;;;;;0.10;0.10;;;-0.40;99.90;-1.80;96082.00;;;;5070252;28;20287;-75
2022/12/11 10:19:44;;;;;;;0.20;0.20;;;-0.30;99.90;-1.70;96090.00;;;;5073549;28;20209;-75
2022/12/11 10:22:21;;;;;;;0.10;0.10;;;-0.30;99.90;-1.60;96065.00;;;;5072917;28;20197;-75
2022/12/11 10:24:59;;;;;;;0.20;0.20;;;-0.20;99.90;-1.60;96066.00;;;;5077559;28;20186;-75
2022/12/11 10:27:49;;;;;;;0.20;0.20;;;-0.20;99.90;-1.50;96078.00;;;;5075404;28;20293;-75
2022/12/11 10:30:21;;;;;;;0.10;0.10;;;-0.10;99.90;-1.70;95993.00;;;;5085289;28;20591;-76
2022/12/11 10:33:02;;;;;;;0.20;0.20;;;-0.20;99.90;-1.70;96077.00;;;;5098728;28;20494;-75
2022/12/11 10:35:38;;;;;;;0.20;0.20;;;-0.20;99.90;-1.70;96057.00;;;;5077956;28;20193;-75
2022/12/11 10:38:15;;;;;;;0.10;0.10;;;-0.10;99.90;-1.50;96072.00;;;;5072566;28;20225;-74
2022/12/11 10:40:46;;;;;;;0.10;0.10;;;-0.10;99.90;-1.30;96097.00;;;;5074544;28;20190;-74
2022/12/11 10:43:14;;;;;;;0.20;0.20;;;0.10;99.90;-1.20;96074.00;;;;5074486;28;20244;-74
2022/12/11 10:45:54;;;;;;;0.10;0.10;;;0.20;99.90;-1.10;96083.00;;;;5074688;28;20593;-74
2022/12/11 10:48:24;;;;;;;0.20;0.20;;;0.20;99.90;-1.00;96101.00;;;;5073016;28;20233;-74
2022/12/11 10:51:00;;;;;;;0.10;0.10;;;0.30;99.90;-1.20;96078.00;;;;5072758;28;20198;-74
2022/12/11 10:53:31;;;;;;;0.10;0.10;;;0.20;99.90;-1.20;96078.00;;;;5072872;28;20185;-74
2022/12/11 10:56:01;;;;;;;0.10;0.10;;;0.20;99.90;-1.30;96060.00;;;;5072324;28;20565;-74
2022/12/11 10:58:32;;;;;;;0.10;0.10;;;0.20;99.90;-1.20;96089.00;;;;5072594;28;20259;-74
2022/12/11 11:01:13;;;;;;;0.10;0.10;;;0.20;99.90;-1.20;96062.00;;;;5072044;28;20574;-74
2022/12/11 11:03:57;;;;;;;0.10;0.10;;;0.20;99.90;-1.40;96072.00;;;;5066939;28;20293;-74
2022/12/11 11:06:27;;;;;;;0.10;0.10;;;0.10;99.90;-1.30;96096.00;;;;5060691;28;20214;-74
2022/12/11 11:08:58;;;;;;;0.10;0.10;;;0.10;99.90;-1.20;96073.00;;;;5052088;28;20227;-74
2022/12/11 11:11:32;;;;;;;0.20;0.20;;;0.20;99.90;-1.30;95996.00;;;;5052313;28;20232;-74
2022/12/11 11:14:08;;;;;;;0.20;0.20;;;0.20;99.90;-1.40;96077.00;;;;5063233;28;20200;-75
2022/12/11 11:16:38;;;;;;;0.20;0.20;;;0.10;99.90;-1.30;96082.00;;;;5072493;28;20197;-75
2022/12/11 11:19:18;;;;;;;0.10;0.10;;;0.10;99.90;-1.50;96066.00;;;;5072071;28;20225;-75
2022/12/11 11:21:51;;;;;;;0.10;0.10;;;0.00;99.90;-1.40;96057.00;;;;5072307;28;20212;-75
2022/12/11 11:24:40;;;;;;;0.15;0.15;;;0.10;99.90;-1.40;96057.00;;;;5072122;28;20201;-75
2022/12/11 11:27:20;;;;;;;0.20;0.20;;;0.10;99.90;-1.50;96068.00;;;;5071914;28;20246;-75
2022/12/11 11:29:52;;;;;;;0.10;0.10;;;0.00;99.90;-1.50;96078.00;;;;5071137;28;20577;-75